Time,TemperatureF,DewpointF,PressureIn,WindDirection,WindDirectionDegrees,WindSpeedMPH,WindSpeedGustMPH,Humidity,HourlyPrecipIn,Conditions,Clouds,dailyrainin,SoftwareType,DateUTC
2013-07-10 01:00:00,64.0,-99.9,-100.00,SW,222,10.0,12.0,-999,-99.99,,,-99.99,,2013-07-10 07:00:00,
2013-07-10 01:22:00,64.0,-99.9,-100.00,SW,222,10.0,12.0,-999,-99.99,,,-99.99,,2013-07-10 07:22:00,
2013-07-10 01:33:00,64.0,-99.9,-100.00,SW,222,10.0,12.0,-999,-99.99,,,-99.99,,2013-07-10 07:33:00,
2013-07-10 01:43:00,64.0,-99.9,-100.00,SW,222,10.0,12.0,-999,-99.99,,,-99.99,,2013-07-10 07:43:00,
2013-07-10 01:53:00,64.0,-99.9,-100.00,SW,222,10.0,12.0,-999,-99.99,,,-99.99,,2013-07-10 07:53:00,
2013-07-10 03:00:00,60.0,-99.9,-100.00,SW,225,5.0,6.0,-999,-99.99,,,-99.99,,2013-07-10 09:00:00,
2013-07-10 03:33:00,60.0,-99.9,-100.00,SW,225,5.0,6.0,-999,-99.99,,,-99.99,,2013-07-10 09:33:00,
2013-07-10 03:43:00,60.0,-99.9,-100.00,SW,225,5.0,6.0,-999,-99.99,,,-99.99,,2013-07-10 09:43:00,
2013-07-10 03:53:00,60.0,-99.9,-100.00,SW,225,5.0,6.0,-999,-99.99,,,-99.99,,2013-07-10 09:53:00,
2013-07-10 04:00:00,-999.0,-99.9,-100.00,SW,222,10.0,12.0,-999,-99.99,,,-99.99,,2013-07-10 10:00:00,
2013-07-10 04:23:00,60.0,-99.9,-100.00,SW,222,10.0,12.0,-999,-99.99,,,-99.99,,2013-07-10 10:23:00,
2013-07-10 04:32:00,60.0,-99.9,-100.00,SW,222,10.0,12.0,-999,-99.99,,,-99.99,,2013-07-10 10:32:00,
2013-07-10 04:51:00,-999.0,-99.9,-100.00,SW,222,10.0,12.0,-999,-99.99,,,-99.99,,2013-07-10 10:51:00,
2013-07-10 05:00:00,57.0,-99.9,-100.00,SSW,210,6.0,6.0,-999,-99.99,,,-99.99,,2013-07-10 11:00:00,
2013-07-10 05:23:00,57.0,-99.9,-100.00,SSW,210,6.0,6.0,-999,-99.99,,,-99.99,,2013-07-10 11:23:00,
2013-07-10 05:33:00,57.0,-99.9,-100.00,SSW,210,6.0,6.0,-999,-99.99,,,-99.99,,2013-07-10 11:33:00,
2013-07-10 05:43:00,57.0,-99.9,-100.00,SSW,210,6.0,6.0,-999,-99.99,,,-99.99,,2013-07-10 11:43:00,
2013-07-10 05:52:00,57.0,-99.9,-100.00,SSW,210,6.0,6.0,-999,-99.99,,,-99.99,,2013-07-10 11:52:00,
2013-07-10 06:00:00,56.0,-99.9,-100.00,SW,233,1.0,3.0,-999,-99.99,,,-99.99,,2013-07-10 12:00:00,
2013-07-10 06:22:00,56.0,-99.9,-100.00,SW,233,1.0,3.0,-999,-99.99,,,-99.99,,2013-07-10 12:22:00,
2013-07-10 06:33:00,56.0,-99.9,-100.00,SW,233,1.0,3.0,-999,-99.99,,,-99.99,,2013-07-10 12:33:00,
2013-07-10 06:43:00,56.0,-99.9,-100.00,SW,233,1.0,3.0,-999,-99.99,,,-99.99,,2013-07-10 12:43:00,
2013-07-10 06:53:00,56.0,-99.9,-100.00,SW,233,1.0,3.0,-999,-99.99,,,-99.99,,2013-07-10 12:53:00,
2013-07-10 07:00:00,64.0,-99.9,-100.00,SW,222,0.0,2.0,-999,-99.99,,,-99.99,,2013-07-10 13:00:00,
2013-07-10 07:32:00,64.0,-99.9,-100.00,SW,222,0.0,2.0,-999,-99.99,,,-99.99,,2013-07-10 13:32:00,
2013-07-10 07:43:00,64.0,-99.9,-100.00,SW,222,0.0,2.0,-999,-99.99,,,-99.99,,2013-07-10 13:43:00,
2013-07-10 07:52:00,64.0,-99.9,-100.00,SW,222,0.0,2.0,-999,-99.99,,,-99.99,,2013-07-10 13:52:00,
2013-07-10 08:00:00,69.0,-99.9,-100.00,NE,44,1.0,2.0,-999,-99.99,,,-99.99,,2013-07-10 14:00:00,
2013-07-10 08:44:00,69.0,-99.9,-100.00,NE,44,1.0,2.0,-999,-99.99,,,-99.99,,2013-07-10 14:44:00,
2013-07-10 08:53:00,69.0,-99.9,-100.00,NE,44,1.0,2.0,-999,-99.99,,,-99.99,,2013-07-10 14:53:00,
2013-07-10 09:00:00,74.0,-99.9,-100.00,NNW,327,2.0,3.0,-999,-99.99,,,-99.99,,2013-07-10 15:00:00,
2013-07-10 09:43:00,74.0,-99.9,-100.00,NNW,327,2.0,3.0,-999,-99.99,,,-99.99,,2013-07-10 15:43:00,
2013-07-10 10:00:00,76.0,-99.9,-100.00,North,356,4.0,6.0,-999,-99.99,,,-99.99,,2013-07-10 16:00:00,
2013-07-10 10:33:00,76.0,-99.9,-100.00,North,356,4.0,6.0,-999,-99.99,,,-99.99,,2013-07-10 16:33:00,
2013-07-10 10:45:00,76.0,-99.9,-100.00,North,356,4.0,6.0,-999,-99.99,,,-99.99,,2013-07-10 16:45:00,
2013-07-10 10:53:00,76.0,-99.9,-100.00,North,356,4.0,6.0,-999,-99.99,,,-99.99,,2013-07-10 16:53:00,
2013-07-10 11:00:00,79.0,-99.9,-100.00,NNW,330,3.0,5.0,-999,-99.99,,,-99.99,,2013-07-10 17:00:00,
2013-07-10 11:32:00,79.0,-99.9,-100.00,NNW,330,3.0,5.0,-999,-99.99,,,-99.99,,2013-07-10 17:32:00,
2013-07-10 11:43:00,79.0,-99.9,-100.00,NNW,330,3.0,5.0,-999,-99.99,,,-99.99,,2013-07-10 17:43:00,
2013-07-10 11:53:00,79.0,-99.9,-100.00,NNW,330,3.0,5.0,-999,-99.99,,,-99.99,,2013-07-10 17:53:00,
2013-07-10 12:00:00,82.0,-99.9,-100.00,NNE,15,4.0,5.0,-999,-99.99,,,-99.99,,2013-07-10 18:00:00,
2013-07-10 12:32:00,82.0,-99.9,-100.00,NNE,15,4.0,5.0,-999,-99.99,,,-99.99,,2013-07-10 18:32:00,
2013-07-10 12:44:00,82.0,-99.9,-100.00,NNE,15,4.0,5.0,-999,-99.99,,,-99.99,,2013-07-10 18:44:00,
2013-07-10 12:53:00,82.0,-99.9,-100.00,NNE,15,4.0,5.0,-999,-99.99,,,-99.99,,2013-07-10 18:53:00,
2013-07-10 14:00:00,88.0,-99.9,-100.00,NW,324,7.0,10.0,-999,-99.99,,,-99.99,,2013-07-10 20:00:00,
2013-07-10 14:43:00,88.0,-99.9,-100.00,NW,324,7.0,10.0,-999,-99.99,,,-99.99,,2013-07-10 20:43:00,
2013-07-10 14:52:00,88.0,-99.9,-100.00,NW,324,7.0,10.0,-999,-99.99,,,-99.99,,2013-07-10 20:52:00,
2013-07-10 16:00:00,93.0,-99.9,-100.00,NNW,334,4.0,6.0,-999,-99.99,,,-99.99,,2013-07-10 22:00:00,
2013-07-10 16:53:00,93.0,-99.9,-100.00,NNW,334,4.0,6.0,-999,-99.99,,,-99.99,,2013-07-10 22:53:00,
2013-07-10 17:00:00,93.0,-99.9,-100.00,NNE,23,6.0,8.0,-999,-99.99,,,-99.99,,2013-07-10 23:00:00,
2013-07-10 17:32:00,93.0,-99.9,-100.00,NNE,23,6.0,8.0,-999,-99.99,,,-99.99,,2013-07-10 23:32:00,
2013-07-10 17:43:00,93.0,-99.9,-100.00,NNE,23,6.0,8.0,-999,-99.99,,,-99.99,,2013-07-10 23:43:00,
2013-07-10 17:44:00,93.0,-99.9,-100.00,NNE,23,6.0,8.0,-999,-99.99,,,-99.99,,2013-07-10 23:44:00,
2013-07-10 17:52:00,93.0,-99.9,-100.00,NNE,23,6.0,8.0,-999,-99.99,,,-99.99,,2013-07-10 23:52:00,
2013-07-10 18:00:00,93.0,-99.9,-100.00,NW,316,4.0,6.0,-999,-99.99,,,-99.99,,2013-07-11 00:00:00,
2013-07-10 18:32:00,93.0,-99.9,-100.00,NW,316,4.0,6.0,-999,-99.99,,,-99.99,,2013-07-11 00:32:00,
2013-07-10 18:43:00,93.0,-99.9,-100.00,NW,316,4.0,6.0,-999,-99.99,,,-99.99,,2013-07-11 00:43:00,
2013-07-10 18:52:00,93.0,-99.9,-100.00,NW,316,4.0,6.0,-999,-99.99,,,-99.99,,2013-07-11 00:52:00,
2013-07-10 19:00:00,90.0,-99.9,-100.00,ESE,103,10.0,12.0,-999,-99.99,,,-99.99,,2013-07-11 01:00:00,
2013-07-10 19:22:00,90.0,-99.9,-100.00,ESE,103,10.0,12.0,-999,-99.99,,,-99.99,,2013-07-11 01:22:00,
2013-07-10 19:32:00,90.0,-99.9,-100.00,ESE,103,10.0,12.0,-999,-99.99,,,-99.99,,2013-07-11 01:32:00,
2013-07-10 19:43:00,90.0,-99.9,-100.00,ESE,103,10.0,12.0,-999,-99.99,,,-99.99,,2013-07-11 01:43:00,
2013-07-10 19:52:00,90.0,-99.9,-100.00,ESE,103,10.0,12.0,-999,-99.99,,,-99.99,,2013-07-11 01:52:00,
2013-07-10 20:00:00,85.0,-99.9,-100.00,SSE,156,5.0,7.0,-999,-99.99,,,-99.99,,2013-07-11 02:00:00,
2013-07-10 20:22:00,85.0,-99.9,-100.00,SSE,156,5.0,7.0,-999,-99.99,,,-99.99,,2013-07-11 02:22:00,
2013-07-10 20:32:00,85.0,-99.9,-100.00,SSE,156,5.0,7.0,-999,-99.99,,,-99.99,,2013-07-11 02:32:00,
2013-07-10 20:44:00,85.0,-99.9,-100.00,SSE,156,5.0,7.0,-999,-99.99,,,-99.99,,2013-07-11 02:44:00,
2013-07-10 20:53:00,85.0,-99.9,-100.00,SSE,156,5.0,7.0,-999,-99.99,,,-99.99,,2013-07-11 02:53:00,
2013-07-10 21:00:00,79.0,-99.9,-100.00,SW,229,8.0,10.0,-999,-99.99,,,-99.99,,2013-07-11 03:00:00,
2013-07-10 21:22:00,79.0,-99.9,-100.00,SW,229,8.0,10.0,-999,-99.99,,,-99.99,,2013-07-11 03:22:00,
2013-07-10 21:33:00,79.0,-99.9,-100.00,SW,229,8.0,10.0,-999,-99.99,,,-99.99,,2013-07-11 03:33:00,
2013-07-10 21:42:00,79.0,-99.9,-100.00,SW,229,8.0,10.0,-999,-99.99,,,-99.99,,2013-07-11 03:42:00,
2013-07-10 21:53:00,79.0,-99.9,-100.00,SW,229,8.0,10.0,-999,-99.99,,,-99.99,,2013-07-11 03:53:00,
2013-07-10 22:00:00,76.0,-99.9,-100.00,SW,219,10.0,12.0,-999,-99.99,,,-99.99,,2013-07-11 04:00:00,
2013-07-10 22:32:00,76.0,-99.9,-100.00,SW,219,10.0,12.0,-999,-99.99,,,-99.99,,2013-07-11 04:32:00,
2013-07-10 22:43:00,76.0,-99.9,-100.00,SW,219,10.0,12.0,-999,-99.99,,,-99.99,,2013-07-11 04:43:00,
2013-07-10 22:54:00,76.0,-99.9,-100.00,SW,219,10.0,12.0,-999,-99.99,,,-99.99,,2013-07-11 04:54:00,
2013-07-10 23:00:00,73.0,-99.9,-100.00,SW,234,10.0,13.0,-999,-99.99,,,-99.99,,2013-07-11 05:00:00,
2013-07-10 23:22:00,73.0,-99.9,-100.00,SW,234,10.0,13.0,-999,-99.99,,,-99.99,,2013-07-11 05:22:00,
2013-07-10 23:32:00,73.0,-99.9,-100.00,SW,234,10.0,13.0,-999,-99.99,,,-99.99,,2013-07-11 05:32:00,
2013-07-10 23:43:00,73.0,-99.9,-100.00,SW,234,10.0,13.0,-999,-99.99,,,-99.99,,2013-07-11 05:43:00,
2013-07-10 23:52:00,73.0,-99.9,-100.00,SW,234,10.0,13.0,-999,-99.99,,,-99.99,,2013-07-11 05:52:00,